sensor_id;sensor_type;location;lat;lon;timestamp;P1;durP1;ratioP1;P2;durP2;ratioP2
16460;SDS011;8341;42.048;24.650;2024-01-11T00:00:43;4.40;;;2.90;;
16460;SDS011;8341;42.048;24.650;2024-01-11T00:03:10;3.83;;;2.37;;
16460;SDS011;8341;42.048;24.650;2024-01-11T00:05:37;6.93;;;3.33;;
16460;SDS011;8341;42.048;24.650;2024-01-11T00:08:06;3.03;;;2.13;;
16460;SDS011;8341;42.048;24.650;2024-01-11T00:10:33;3.00;;;2.17;;
16460;SDS011;8341;42.048;24.650;2024-01-11T00:13:00;9.13;;;5.60;;
16460;SDS011;8341;42.048;24.650;2024-01-11T00:15:27;5.90;;;4.23;;
16460;SDS011;8341;42.048;24.650;2024-01-11T00:17:54;4.03;;;2.07;;
16460;SDS011;8341;42.048;24.650;2024-01-11T00:20:21;3.10;;;2.13;;
16460;SDS011;8341;42.048;24.650;2024-01-11T00:22:48;6.00;;;3.50;;
16460;SDS011;8341;42.048;24.650;2024-01-11T00:25:16;8.37;;;4.70;;
16460;SDS011;8341;42.048;24.650;2024-01-11T00:27:43;10.50;;;5.93;;
16460;SDS011;8341;42.048;24.650;2024-01-11T00:30:10;12.60;;;7.53;;
16460;SDS011;8341;42.048;24.650;2024-01-11T00:32:38;5.60;;;3.80;;
16460;SDS011;8341;42.048;24.650;2024-01-11T00:35:05;5.67;;;3.43;;
16460;SDS011;8341;42.048;24.650;2024-01-11T00:37:32;4.43;;;3.10;;
16460;SDS011;8341;42.048;24.650;2024-01-11T00:39:59;1.80;;;1.37;;
16460;SDS011;8341;42.048;24.650;2024-01-11T00:42:28;1.20;;;1.10;;
16460;SDS011;8341;42.048;24.650;2024-01-11T00:44:55;1.97;;;1.50;;
16460;SDS011;8341;42.048;24.650;2024-01-11T00:47:22;1.90;;;1.53;;
16460;SDS011;8341;42.048;24.650;2024-01-11T00:49:49;14.43;;;6.77;;
16460;SDS011;8341;42.048;24.650;2024-01-11T00:52:16;15.10;;;8.53;;
16460;SDS011;8341;42.048;24.650;2024-01-11T00:54:43;4.73;;;3.40;;
16460;SDS011;8341;42.048;24.650;2024-01-11T00:57:10;4.33;;;3.50;;
16460;SDS011;8341;42.048;24.650;2024-01-11T00:59:39;2.23;;;1.57;;
16460;SDS011;8341;42.048;24.650;2024-01-11T01:02:06;1.93;;;1.73;;
16460;SDS011;8341;42.048;24.650;2024-01-11T01:04:33;2.43;;;1.90;;
16460;SDS011;8341;42.048;24.650;2024-01-11T01:07:03;2.00;;;1.70;;
16460;SDS011;8341;42.048;24.650;2024-01-11T01:09:30;5.10;;;3.13;;
16460;SDS011;8341;42.048;24.650;2024-01-11T01:11:57;3.10;;;2.57;;
16460;SDS011;8341;42.048;24.650;2024-01-11T01:14:24;2.23;;;1.87;;
16460;SDS011;8341;42.048;24.650;2024-01-11T01:16:53;2.17;;;1.83;;
16460;SDS011;8341;42.048;24.650;2024-01-11T01:19:20;2.80;;;1.67;;
16460;SDS011;8341;42.048;24.650;2024-01-11T01:21:47;1.63;;;1.37;;
16460;SDS011;8341;42.048;24.650;2024-01-11T01:24:14;18.60;;;15.60;;
16460;SDS011;8341;42.048;24.650;2024-01-11T01:26:41;15.80;;;11.60;;
16460;SDS011;8341;42.048;24.650;2024-01-11T01:29:08;3.77;;;3.30;;
16460;SDS011;8341;42.048;24.650;2024-01-11T01:31:35;1.00;;;0.90;;
16460;SDS011;8341;42.048;24.650;2024-01-11T01:34:04;1.63;;;1.30;;
16460;SDS011;8341;42.048;24.650;2024-01-11T01:36:31;1.53;;;1.07;;
16460;SDS011;8341;42.048;24.650;2024-01-11T01:38:58;2.40;;;1.60;;
16460;SDS011;8341;42.048;24.650;2024-01-11T01:41:25;2.20;;;1.80;;
16460;SDS011;8341;42.048;24.650;2024-01-11T01:43:52;2.37;;;2.10;;
16460;SDS011;8341;42.048;24.650;2024-01-11T01:46:19;1.57;;;1.10;;
16460;SDS011;8341;42.048;24.650;2024-01-11T01:48:49;1.77;;;1.30;;
16460;SDS011;8341;42.048;24.650;2024-01-11T01:51:18;2.00;;;1.37;;
16460;SDS011;8341;42.048;24.650;2024-01-11T01:53:45;2.40;;;1.07;;
16460;SDS011;8341;42.048;24.650;2024-01-11T01:56:13;2.10;;;1.90;;
16460;SDS011;8341;42.048;24.650;2024-01-11T01:58:40;1.53;;;1.00;;
16460;SDS011;8341;42.048;24.650;2024-01-11T02:01:08;0.80;;;0.80;;
16460;SDS011;8341;42.048;24.650;2024-01-11T02:03:36;0.70;;;0.60;;
16460;SDS011;8341;42.048;24.650;2024-01-11T02:06:04;1.50;;;1.00;;
16460;SDS011;8341;42.048;24.650;2024-01-11T02:08:33;3.63;;;2.10;;
16460;SDS011;8341;42.048;24.650;2024-01-11T02:11:02;1.60;;;1.50;;
16460;SDS011;8341;42.048;24.650;2024-01-11T02:13:29;3.10;;;2.70;;
16460;SDS011;8341;42.048;24.650;2024-01-11T02:15:58;2.13;;;1.40;;
16460;SDS011;8341;42.048;24.650;2024-01-11T02:18:25;1.60;;;0.87;;
16460;SDS011;8341;42.048;24.650;2024-01-11T02:20:52;1.30;;;0.83;;
16460;SDS011;8341;42.048;24.650;2024-01-11T02:23:19;2.30;;;1.20;;
16460;SDS011;8341;42.048;24.650;2024-01-11T02:25:52;1.50;;;0.80;;
16460;SDS011;8341;42.048;24.650;2024-01-11T02:28:19;1.20;;;0.80;;
16460;SDS011;8341;42.048;24.650;2024-01-11T02:30:46;2.07;;;1.27;;
16460;SDS011;8341;42.048;24.650;2024-01-11T02:33:13;1.40;;;0.73;;
16460;SDS011;8341;42.048;24.650;2024-01-11T02:35:41;1.30;;;0.53;;
16460;SDS011;8341;42.048;24.650;2024-01-11T02:38:09;2.03;;;1.03;;
16460;SDS011;8341;42.048;24.650;2024-01-11T02:40:37;2.17;;;1.10;;
16460;SDS011;8341;42.048;24.650;2024-01-11T02:43:10;2.13;;;1.77;;
16460;SDS011;8341;42.048;24.650;2024-01-11T02:45:37;3.53;;;2.53;;
16460;SDS011;8341;42.048;24.650;2024-01-11T02:48:04;2.27;;;1.77;;
16460;SDS011;8341;42.048;24.650;2024-01-11T02:50:31;3.47;;;2.97;;
16460;SDS011;8341;42.048;24.650;2024-01-11T02:52:58;2.97;;;1.97;;
16460;SDS011;8341;42.048;24.650;2024-01-11T02:55:25;3.40;;;2.40;;
16460;SDS011;8341;42.048;24.650;2024-01-11T02:57:52;2.50;;;1.17;;
16460;SDS011;8341;42.048;24.650;2024-01-11T03:00:21;1.20;;;0.63;;
16460;SDS011;8341;42.048;24.650;2024-01-11T03:02:48;16.67;;;5.87;;
16460;SDS011;8341;42.048;24.650;2024-01-11T03:05:15;25.10;;;9.53;;
16460;SDS011;8341;42.048;24.650;2024-01-11T03:07:42;15.60;;;8.00;;
16460;SDS011;8341;42.048;24.650;2024-01-11T03:10:09;9.83;;;5.70;;
16460;SDS011;8341;42.048;24.650;2024-01-11T03:12:36;8.73;;;5.87;;
16460;SDS011;8341;42.048;24.650;2024-01-11T03:15:03;5.53;;;4.20;;
16460;SDS011;8341;42.048;24.650;2024-01-11T03:17:32;2.50;;;2.03;;
16460;SDS011;8341;42.048;24.650;2024-01-11T03:19:59;2.20;;;1.47;;
16460;SDS011;8341;42.048;24.650;2024-01-11T03:22:28;1.67;;;1.10;;
16460;SDS011;8341;42.048;24.650;2024-01-11T03:24:55;3.43;;;2.47;;
16460;SDS011;8341;42.048;24.650;2024-01-11T03:27:22;2.43;;;1.90;;
16460;SDS011;8341;42.048;24.650;2024-01-11T03:29:49;1.73;;;1.10;;
16460;SDS011;8341;42.048;24.650;2024-01-11T03:32:16;2.40;;;0.93;;
16460;SDS011;8341;42.048;24.650;2024-01-11T03:34:45;4.03;;;2.13;;
16460;SDS011;8341;42.048;24.650;2024-01-11T03:37:12;8.13;;;4.37;;
16460;SDS011;8341;42.048;24.650;2024-01-11T03:39:39;6.97;;;1.97;;
16460;SDS011;8341;42.048;24.650;2024-01-11T03:42:06;4.57;;;2.87;;
16460;SDS011;8341;42.048;24.650;2024-01-11T03:44:35;1.80;;;1.00;;
16460;SDS011;8341;42.048;24.650;2024-01-11T03:47:03;1.03;;;0.60;;
16460;SDS011;8341;42.048;24.650;2024-01-11T03:49:30;2.20;;;0.60;;
16460;SDS011;8341;42.048;24.650;2024-01-11T03:51:59;9.33;;;7.00;;
16460;SDS011;8341;42.048;24.650;2024-01-11T03:54:26;8.37;;;5.73;;
16460;SDS011;8341;42.048;24.650;2024-01-11T03:56:53;5.13;;;4.17;;
16460;SDS011;8341;42.048;24.650;2024-01-11T03:59:20;2.73;;;1.30;;
16460;SDS011;8341;42.048;24.650;2024-01-11T04:01:47;3.43;;;1.60;;
16460;SDS011;8341;42.048;24.650;2024-01-11T04:04:14;2.63;;;1.20;;
16460;SDS011;8341;42.048;24.650;2024-01-11T04:06:41;5.83;;;5.17;;
16460;SDS011;8341;42.048;24.650;2024-01-11T04:09:09;1.23;;;0.60;;
16460;SDS011;8341;42.048;24.650;2024-01-11T04:11:36;4.03;;;3.57;;
16460;SDS011;8341;42.048;24.650;2024-01-11T04:14:03;4.10;;;3.80;;
16460;SDS011;8341;42.048;24.650;2024-01-11T04:16:30;3.20;;;2.90;;
16460;SDS011;8341;42.048;24.650;2024-01-11T04:18:57;1.03;;;0.90;;
16460;SDS011;8341;42.048;24.650;2024-01-11T04:21:25;1.40;;;0.40;;
16460;SDS011;8341;42.048;24.650;2024-01-11T04:23:54;0.90;;;0.80;;
16460;SDS011;8341;42.048;24.650;2024-01-11T04:26:22;12.00;;;7.87;;
16460;SDS011;8341;42.048;24.650;2024-01-11T04:28:49;17.50;;;12.33;;
16460;SDS011;8341;42.048;24.650;2024-01-11T04:31:18;7.47;;;3.73;;
16460;SDS011;8341;42.048;24.650;2024-01-11T04:33:45;4.67;;;2.67;;
16460;SDS011;8341;42.048;24.650;2024-01-11T04:36:12;3.40;;;1.87;;
16460;SDS011;8341;42.048;24.650;2024-01-11T04:38:40;2.13;;;1.70;;
16460;SDS011;8341;42.048;24.650;2024-01-11T04:41:09;5.47;;;3.03;;
16460;SDS011;8341;42.048;24.650;2024-01-11T04:43:38;3.47;;;2.30;;
16460;SDS011;8341;42.048;24.650;2024-01-11T04:46:12;2.20;;;1.50;;
16460;SDS011;8341;42.048;24.650;2024-01-11T04:48:40;1.20;;;1.00;;
16460;SDS011;8341;42.048;24.650;2024-01-11T04:51:07;1.07;;;0.97;;
16460;SDS011;8341;42.048;24.650;2024-01-11T04:53:36;0.97;;;0.80;;
16460;SDS011;8341;42.048;24.650;2024-01-11T04:56:04;2.03;;;0.97;;
16460;SDS011;8341;42.048;24.650;2024-01-11T04:58:32;1.00;;;0.60;;
16460;SDS011;8341;42.048;24.650;2024-01-11T05:01:01;1.80;;;0.93;;
16460;SDS011;8341;42.048;24.650;2024-01-11T05:03:28;1.53;;;1.10;;
16460;SDS011;8341;42.048;24.650;2024-01-11T05:05:55;5.00;;;2.50;;
16460;SDS011;8341;42.048;24.650;2024-01-11T05:08:22;2.23;;;1.60;;
16460;SDS011;8341;42.048;24.650;2024-01-11T05:10:49;2.83;;;2.33;;
16460;SDS011;8341;42.048;24.650;2024-01-11T05:13:16;3.13;;;0.90;;
16460;SDS011;8341;42.048;24.650;2024-01-11T05:15:44;1.03;;;0.80;;
16460;SDS011;8341;42.048;24.650;2024-01-11T05:18:12;0.80;;;0.80;;
16460;SDS011;8341;42.048;24.650;2024-01-11T05:20:39;3.03;;;1.57;;
16460;SDS011;8341;42.048;24.650;2024-01-11T05:23:06;0.50;;;0.50;;
16460;SDS011;8341;42.048;24.650;2024-01-11T05:25:35;0.63;;;0.50;;
16460;SDS011;8341;42.048;24.650;2024-01-11T05:28:02;0.30;;;0.30;;
16460;SDS011;8341;42.048;24.650;2024-01-11T05:30:30;0.87;;;0.70;;
16460;SDS011;8341;42.048;24.650;2024-01-11T05:32:57;0.90;;;0.60;;
16460;SDS011;8341;42.048;24.650;2024-01-11T05:35:25;1.10;;;0.70;;
16460;SDS011;8341;42.048;24.650;2024-01-11T05:37:53;33.87;;;16.90;;
16460;SDS011;8341;42.048;24.650;2024-01-11T05:40:21;18.07;;;8.40;;
16460;SDS011;8341;42.048;24.650;2024-01-11T05:42:48;12.20;;;6.50;;
16460;SDS011;8341;42.048;24.650;2024-01-11T05:45:15;18.67;;;9.70;;
16460;SDS011;8341;42.048;24.650;2024-01-11T05:47:43;18.93;;;8.80;;
16460;SDS011;8341;42.048;24.650;2024-01-11T05:50:10;13.33;;;3.57;;
16460;SDS011;8341;42.048;24.650;2024-01-11T05:52:39;3.70;;;2.33;;
16460;SDS011;8341;42.048;24.650;2024-01-11T05:55:06;4.17;;;2.57;;
16460;SDS011;8341;42.048;24.650;2024-01-11T05:57:34;2.17;;;1.37;;
16460;SDS011;8341;42.048;24.650;2024-01-11T06:00:01;1.10;;;1.00;;
16460;SDS011;8341;42.048;24.650;2024-01-11T06:02:28;5.20;;;3.23;;
16460;SDS011;8341;42.048;24.650;2024-01-11T06:04:56;1.20;;;1.00;;
16460;SDS011;8341;42.048;24.650;2024-01-11T06:07:23;3.07;;;2.43;;
16460;SDS011;8341;42.048;24.650;2024-01-11T06:09:52;0.90;;;0.70;;
16460;SDS011;8341;42.048;24.650;2024-01-11T06:12:19;0.50;;;0.50;;
16460;SDS011;8341;42.048;24.650;2024-01-11T06:14:46;0.40;;;0.30;;
16460;SDS011;8341;42.048;24.650;2024-01-11T06:17:13;0.43;;;0.43;;
16460;SDS011;8341;42.048;24.650;2024-01-11T06:19:40;0.73;;;0.20;;
16460;SDS011;8341;42.048;24.650;2024-01-11T06:22:07;0.40;;;0.30;;
16460;SDS011;8341;42.048;24.650;2024-01-11T06:24:34;4.23;;;2.33;;
16460;SDS011;8341;42.048;24.650;2024-01-11T06:27:02;34.70;;;22.60;;
16460;SDS011;8341;42.048;24.650;2024-01-11T06:29:29;12.33;;;7.70;;
16460;SDS011;8341;42.048;24.650;2024-01-11T06:31:56;1.83;;;1.10;;
16460;SDS011;8341;42.048;24.650;2024-01-11T06:34:23;2.50;;;2.20;;
16460;SDS011;8341;42.048;24.650;2024-01-11T06:36:50;1.17;;;0.73;;
16460;SDS011;8341;42.048;24.650;2024-01-11T06:39:17;1.43;;;1.07;;
16460;SDS011;8341;42.048;24.650;2024-01-11T06:41:44;23.33;;;9.53;;
16460;SDS011;8341;42.048;24.650;2024-01-11T06:44:13;22.80;;;11.10;;
16460;SDS011;8341;42.048;24.650;2024-01-11T06:46:39;32.70;;;15.87;;
16460;SDS011;8341;42.048;24.650;2024-01-11T06:49:06;32.47;;;13.57;;
16460;SDS011;8341;42.048;24.650;2024-01-11T06:51:34;19.67;;;9.40;;
16460;SDS011;8341;42.048;24.650;2024-01-11T06:54:00;7.33;;;4.37;;
16460;SDS011;8341;42.048;24.650;2024-01-11T06:56:27;21.00;;;8.80;;
16460;SDS011;8341;42.048;24.650;2024-01-11T06:58:55;2.53;;;1.20;;
16460;SDS011;8341;42.048;24.650;2024-01-11T07:01:23;10.60;;;4.90;;
16460;SDS011;8341;42.048;24.650;2024-01-11T07:03:50;3.53;;;2.10;;
16460;SDS011;8341;42.048;24.650;2024-01-11T07:06:17;1.00;;;0.90;;
16460;SDS011;8341;42.048;24.650;2024-01-11T07:08:44;5.80;;;4.43;;
16460;SDS011;8341;42.048;24.650;2024-01-11T07:11:11;18.57;;;10.27;;
16460;SDS011;8341;42.048;24.650;2024-01-11T07:13:38;14.50;;;8.87;;
16460;SDS011;8341;42.048;24.650;2024-01-11T07:16:05;13.17;;;7.13;;
16460;SDS011;8341;42.048;24.650;2024-01-11T07:18:34;7.50;;;4.33;;
16460;SDS011;8341;42.048;24.650;2024-01-11T07:21:01;17.63;;;10.97;;
16460;SDS011;8341;42.048;24.650;2024-01-11T07:23:28;16.97;;;10.17;;
16460;SDS011;8341;42.048;24.650;2024-01-11T07:25:55;13.40;;;8.70;;
16460;SDS011;8341;42.048;24.650;2024-01-11T07:28:23;7.90;;;5.07;;
16460;SDS011;8341;42.048;24.650;2024-01-11T07:30:50;7.67;;;4.20;;
16460;SDS011;8341;42.048;24.650;2024-01-11T07:33:18;9.00;;;4.33;;
16460;SDS011;8341;42.048;24.650;2024-01-11T07:35:46;7.07;;;4.03;;
16460;SDS011;8341;42.048;24.650;2024-01-11T07:38:14;1.83;;;1.10;;
16460;SDS011;8341;42.048;24.650;2024-01-11T07:40:41;1.63;;;1.23;;
16460;SDS011;8341;42.048;24.650;2024-01-11T07:43:08;1.27;;;0.70;;
16460;SDS011;8341;42.048;24.650;2024-01-11T07:45:35;21.80;;;12.80;;
16460;SDS011;8341;42.048;24.650;2024-01-11T07:48:02;15.23;;;10.47;;
16460;SDS011;8341;42.048;24.650;2024-01-11T07:50:30;1.57;;;1.20;;
16460;SDS011;8341;42.048;24.650;2024-01-11T07:52:58;2.73;;;2.10;;
16460;SDS011;8341;42.048;24.650;2024-01-11T07:55:26;10.30;;;6.27;;
16460;SDS011;8341;42.048;24.650;2024-01-11T07:57:53;2.83;;;1.80;;
16460;SDS011;8341;42.048;24.650;2024-01-11T08:00:20;1.90;;;1.30;;
16460;SDS011;8341;42.048;24.650;2024-01-11T08:02:48;2.27;;;1.47;;
16460;SDS011;8341;42.048;24.650;2024-01-11T08:05:15;16.13;;;8.47;;
16460;SDS011;8341;42.048;24.650;2024-01-11T08:07:42;14.93;;;9.33;;
16460;SDS011;8341;42.048;24.650;2024-01-11T08:10:11;12.73;;;8.00;;
16460;SDS011;8341;42.048;24.650;2024-01-11T08:12:38;14.47;;;9.00;;
16460;SDS011;8341;42.048;24.650;2024-01-11T08:15:05;12.17;;;8.00;;
16460;SDS011;8341;42.048;24.650;2024-01-11T08:17:37;10.57;;;6.90;;
16460;SDS011;8341;42.048;24.650;2024-01-11T08:20:05;10.30;;;5.77;;
16460;SDS011;8341;42.048;24.650;2024-01-11T08:22:33;9.80;;;5.50;;
16460;SDS011;8341;42.048;24.650;2024-01-11T08:25:01;15.40;;;8.30;;
16460;SDS011;8341;42.048;24.650;2024-01-11T08:27:31;14.27;;;10.37;;
16460;SDS011;8341;42.048;24.650;2024-01-11T08:29:58;10.40;;;6.33;;
16460;SDS011;8341;42.048;24.650;2024-01-11T08:32:26;7.73;;;5.07;;
16460;SDS011;8341;42.048;24.650;2024-01-11T08:34:54;12.33;;;7.47;;
16460;SDS011;8341;42.048;24.650;2024-01-11T08:37:21;14.13;;;8.83;;
16460;SDS011;8341;42.048;24.650;2024-01-11T08:39:48;19.50;;;11.60;;
16460;SDS011;8341;42.048;24.650;2024-01-11T08:42:15;15.37;;;9.73;;
16460;SDS011;8341;42.048;24.650;2024-01-11T08:44:45;14.30;;;8.43;;
16460;SDS011;8341;42.048;24.650;2024-01-11T08:47:12;16.53;;;10.57;;
16460;SDS011;8341;42.048;24.650;2024-01-11T08:49:40;14.67;;;8.27;;
16460;SDS011;8341;42.048;24.650;2024-01-11T08:52:07;11.93;;;7.50;;
16460;SDS011;8341;42.048;24.650;2024-01-11T08:54:34;15.33;;;9.73;;
16460;SDS011;8341;42.048;24.650;2024-01-11T08:57:01;17.93;;;10.57;;
16460;SDS011;8341;42.048;24.650;2024-01-11T08:59:28;19.70;;;11.43;;
16460;SDS011;8341;42.048;24.650;2024-01-11T09:01:57;19.20;;;10.83;;
16460;SDS011;8341;42.048;24.650;2024-01-11T09:04:24;19.90;;;11.10;;
16460;SDS011;8341;42.048;24.650;2024-01-11T09:06:53;22.77;;;12.93;;
16460;SDS011;8341;42.048;24.650;2024-01-11T09:09:21;18.63;;;11.63;;
16460;SDS011;8341;42.048;24.650;2024-01-11T09:11:48;20.43;;;12.07;;
16460;SDS011;8341;42.048;24.650;2024-01-11T09:14:15;19.87;;;12.03;;
16460;SDS011;8341;42.048;24.650;2024-01-11T09:16:42;23.23;;;11.97;;
16460;SDS011;8341;42.048;24.650;2024-01-11T09:19:12;19.00;;;11.57;;
16460;SDS011;8341;42.048;24.650;2024-01-11T09:21:39;21.03;;;11.30;;
16460;SDS011;8341;42.048;24.650;2024-01-11T09:24:07;19.00;;;12.03;;
16460;SDS011;8341;42.048;24.650;2024-01-11T09:26:34;18.97;;;11.03;;
16460;SDS011;8341;42.048;24.650;2024-01-11T09:29:02;21.13;;;10.80;;
16460;SDS011;8341;42.048;24.650;2024-01-11T09:31:29;19.90;;;12.27;;
16460;SDS011;8341;42.048;24.650;2024-01-11T09:33:56;21.03;;;12.17;;
16460;SDS011;8341;42.048;24.650;2024-01-11T09:36:24;17.07;;;10.47;;
16460;SDS011;8341;42.048;24.650;2024-01-11T09:38:51;17.27;;;11.17;;
16460;SDS011;8341;42.048;24.650;2024-01-11T09:41:18;18.57;;;11.30;;
16460;SDS011;8341;42.048;24.650;2024-01-11T09:43:46;16.90;;;10.70;;
16460;SDS011;8341;42.048;24.650;2024-01-11T09:46:17;19.23;;;11.37;;
16460;SDS011;8341;42.048;24.650;2024-01-11T09:48:46;18.57;;;10.80;;
16460;SDS011;8341;42.048;24.650;2024-01-11T09:51:15;17.80;;;11.10;;
16460;SDS011;8341;42.048;24.650;2024-01-11T09:53:44;16.97;;;11.10;;
16460;SDS011;8341;42.048;24.650;2024-01-11T09:56:11;15.83;;;10.60;;
16460;SDS011;8341;42.048;24.650;2024-01-11T09:58:38;17.43;;;11.07;;
16460;SDS011;8341;42.048;24.650;2024-01-11T10:01:10;14.27;;;9.17;;
16460;SDS011;8341;42.048;24.650;2024-01-11T10:03:39;15.27;;;10.33;;
16460;SDS011;8341;42.048;24.650;2024-01-11T10:06:06;18.90;;;9.43;;
16460;SDS011;8341;42.048;24.650;2024-01-11T10:08:34;17.13;;;9.63;;
16460;SDS011;8341;42.048;24.650;2024-01-11T10:11:04;11.50;;;7.97;;
16460;SDS011;8341;42.048;24.650;2024-01-11T10:13:31;13.00;;;9.33;;
16460;SDS011;8341;42.048;24.650;2024-01-11T10:16:07;15.63;;;10.03;;
16460;SDS011;8341;42.048;24.650;2024-01-11T10:18:38;15.07;;;9.87;;
16460;SDS011;8341;42.048;24.650;2024-01-11T10:21:05;13.23;;;9.80;;
16460;SDS011;8341;42.048;24.650;2024-01-11T10:23:34;11.87;;;8.50;;
16460;SDS011;8341;42.048;24.650;2024-01-11T10:26:04;14.60;;;9.40;;
16460;SDS011;8341;42.048;24.650;2024-01-11T10:28:32;10.07;;;7.50;;
16460;SDS011;8341;42.048;24.650;2024-01-11T10:31:02;18.17;;;11.27;;
16460;SDS011;8341;42.048;24.650;2024-01-11T10:33:29;13.63;;;10.37;;
16460;SDS011;8341;42.048;24.650;2024-01-11T10:35:56;21.83;;;15.37;;
16460;SDS011;8341;42.048;24.650;2024-01-11T10:38:23;18.50;;;13.87;;
16460;SDS011;8341;42.048;24.650;2024-01-11T10:40:52;18.93;;;13.17;;
16460;SDS011;8341;42.048;24.650;2024-01-11T10:43:23;15.47;;;11.40;;
16460;SDS011;8341;42.048;24.650;2024-01-11T10:45:50;20.50;;;14.33;;
16460;SDS011;8341;42.048;24.650;2024-01-11T10:48:20;18.30;;;11.93;;
16460;SDS011;8341;42.048;24.650;2024-01-11T10:50:49;15.60;;;10.53;;
16460;SDS011;8341;42.048;24.650;2024-01-11T10:53:24;18.57;;;11.47;;
16460;SDS011;8341;42.048;24.650;2024-01-11T10:55:55;14.83;;;9.33;;
16460;SDS011;8341;42.048;24.650;2024-01-11T10:58:26;17.07;;;10.83;;
16460;SDS011;8341;42.048;24.650;2024-01-11T11:00:53;20.00;;;13.63;;
16460;SDS011;8341;42.048;24.650;2024-01-11T11:03:21;15.70;;;11.70;;
16460;SDS011;8341;42.048;24.650;2024-01-11T11:05:50;17.93;;;12.07;;
16460;SDS011;8341;42.048;24.650;2024-01-11T11:08:20;19.03;;;13.23;;
16460;SDS011;8341;42.048;24.650;2024-01-11T11:10:49;29.73;;;18.83;;
16460;SDS011;8341;42.048;24.650;2024-01-11T11:13:21;22.33;;;15.13;;
16460;SDS011;8341;42.048;24.650;2024-01-11T11:15:50;19.40;;;12.23;;
16460;SDS011;8341;42.048;24.650;2024-01-11T11:18:17;17.83;;;11.67;;
16460;SDS011;8341;42.048;24.650;2024-01-11T11:20:46;18.27;;;13.20;;
16460;SDS011;8341;42.048;24.650;2024-01-11T11:23:14;15.60;;;11.07;;
16460;SDS011;8341;42.048;24.650;2024-01-11T11:25:45;21.53;;;14.40;;
16460;SDS011;8341;42.048;24.650;2024-01-11T11:28:13;18.87;;;12.97;;
16460;SDS011;8341;42.048;24.650;2024-01-11T11:30:42;20.43;;;12.97;;
16460;SDS011;8341;42.048;24.650;2024-01-11T11:33:17;14.10;;;10.33;;
16460;SDS011;8341;42.048;24.650;2024-01-11T11:35:45;16.27;;;10.53;;
16460;SDS011;8341;42.048;24.650;2024-01-11T11:38:22;15.57;;;10.27;;
16460;SDS011;8341;42.048;24.650;2024-01-11T11:40:52;15.80;;;10.83;;
16460;SDS011;8341;42.048;24.650;2024-01-11T11:43:20;17.60;;;11.70;;
16460;SDS011;8341;42.048;24.650;2024-01-11T11:45:48;19.20;;;12.53;;
16460;SDS011;8341;42.048;24.650;2024-01-11T11:51:16;17.03;;;12.10;;
16460;SDS011;8341;42.048;24.650;2024-01-11T11:53:45;16.00;;;11.10;;
16460;SDS011;8341;42.048;24.650;2024-01-11T11:56:13;14.10;;;10.37;;
16460;SDS011;8341;42.048;24.650;2024-01-11T11:58:42;17.47;;;10.97;;
16460;SDS011;8341;42.048;24.650;2024-01-11T12:01:10;16.93;;;11.73;;
16460;SDS011;8341;42.048;24.650;2024-01-11T12:03:38;19.33;;;12.63;;
16460;SDS011;8341;42.048;24.650;2024-01-11T12:06:09;18.80;;;12.43;;
16460;SDS011;8341;42.048;24.650;2024-01-11T12:08:37;16.57;;;12.20;;
16460;SDS011;8341;42.048;24.650;2024-01-11T12:11:05;18.17;;;11.80;;
16460;SDS011;8341;42.048;24.650;2024-01-11T12:13:33;18.00;;;12.20;;
16460;SDS011;8341;42.048;24.650;2024-01-11T12:16:00;16.90;;;11.93;;
16460;SDS011;8341;42.048;24.650;2024-01-11T12:18:27;17.13;;;11.10;;
16460;SDS011;8341;42.048;24.650;2024-01-11T12:20:54;19.10;;;12.07;;
16460;SDS011;8341;42.048;24.650;2024-01-11T12:23:22;19.77;;;11.93;;
16460;SDS011;8341;42.048;24.650;2024-01-11T12:25:50;15.90;;;10.23;;
16460;SDS011;8341;42.048;24.650;2024-01-11T12:28:17;12.47;;;9.10;;
16460;SDS011;8341;42.048;24.650;2024-01-11T12:30:44;20.00;;;11.77;;
16460;SDS011;8341;42.048;24.650;2024-01-11T12:33:11;17.07;;;11.30;;
16460;SDS011;8341;42.048;24.650;2024-01-11T12:35:39;16.63;;;11.23;;
16460;SDS011;8341;42.048;24.650;2024-01-11T12:38:06;17.37;;;11.17;;
16460;SDS011;8341;42.048;24.650;2024-01-11T12:40:36;16.07;;;10.50;;
16460;SDS011;8341;42.048;24.650;2024-01-11T12:43:03;15.50;;;11.00;;
16460;SDS011;8341;42.048;24.650;2024-01-11T12:45:31;15.57;;;11.43;;
16460;SDS011;8341;42.048;24.650;2024-01-11T12:47:58;16.63;;;10.57;;
16460;SDS011;8341;42.048;24.650;2024-01-11T12:50:26;14.23;;;10.00;;
16460;SDS011;8341;42.048;24.650;2024-01-11T12:53:09;15.13;;;10.20;;
16460;SDS011;8341;42.048;24.650;2024-01-11T12:55:44;16.20;;;11.20;;
16460;SDS011;8341;42.048;24.650;2024-01-11T12:58:12;16.40;;;10.57;;
16460;SDS011;8341;42.048;24.650;2024-01-11T13:00:39;13.67;;;9.80;;
16460;SDS011;8341;42.048;24.650;2024-01-11T13:03:06;14.40;;;10.73;;
16460;SDS011;8341;42.048;24.650;2024-01-11T13:05:35;16.77;;;11.30;;
16460;SDS011;8341;42.048;24.650;2024-01-11T13:08:03;13.77;;;10.50;;
16460;SDS011;8341;42.048;24.650;2024-01-11T13:10:35;16.03;;;10.90;;
16460;SDS011;8341;42.048;24.650;2024-01-11T13:13:03;17.27;;;9.87;;
16460;SDS011;8341;42.048;24.650;2024-01-11T13:15:33;17.53;;;11.00;;
16460;SDS011;8341;42.048;24.650;2024-01-11T13:18:01;13.37;;;9.43;;
16460;SDS011;8341;42.048;24.650;2024-01-11T13:20:29;13.43;;;9.70;;
16460;SDS011;8341;42.048;24.650;2024-01-11T13:23:11;13.00;;;9.13;;
16460;SDS011;8341;42.048;24.650;2024-01-11T13:25:39;16.20;;;10.37;;
16460;SDS011;8341;42.048;24.650;2024-01-11T13:28:08;12.87;;;9.17;;
16460;SDS011;8341;42.048;24.650;2024-01-11T13:30:37;11.93;;;8.63;;
16460;SDS011;8341;42.048;24.650;2024-01-11T13:33:05;17.80;;;11.80;;
16460;SDS011;8341;42.048;24.650;2024-01-11T13:35:33;20.30;;;13.63;;
16460;SDS011;8341;42.048;24.650;2024-01-11T13:38:00;19.52;;;13.57;;
16460;SDS011;8341;42.048;24.650;2024-01-11T13:40:28;20.27;;;12.90;;
16460;SDS011;8341;42.048;24.650;2024-01-11T13:42:55;17.85;;;12.27;;
16460;SDS011;8341;42.048;24.650;2024-01-11T13:45:23;18.05;;;12.50;;
16460;SDS011;8341;42.048;24.650;2024-01-11T13:47:51;16.80;;;10.90;;
16460;SDS011;8341;42.048;24.650;2024-01-11T13:50:19;14.40;;;10.52;;
16460;SDS011;8341;42.048;24.650;2024-01-11T13:52:46;11.40;;;7.10;;
16460;SDS011;8341;42.048;24.650;2024-01-11T13:55:13;20.77;;;13.15;;
16460;SDS011;8341;42.048;24.650;2024-01-11T13:57:40;18.88;;;11.77;;
16460;SDS011;8341;42.048;24.650;2024-01-11T14:00:08;16.35;;;10.30;;
16460;SDS011;8341;42.048;24.650;2024-01-11T14:02:38;16.13;;;10.50;;
16460;SDS011;8341;42.048;24.650;2024-01-11T14:05:06;20.90;;;12.32;;
16460;SDS011;8341;42.048;24.650;2024-01-11T14:07:36;11.55;;;6.68;;
16460;SDS011;8341;42.048;24.650;2024-01-11T14:10:04;15.10;;;7.63;;
16460;SDS011;8341;42.048;24.650;2024-01-11T14:12:31;14.73;;;10.50;;
16460;SDS011;8341;42.048;24.650;2024-01-11T14:14:58;14.02;;;7.60;;
16460;SDS011;8341;42.048;24.650;2024-01-11T14:17:26;24.60;;;13.65;;
16460;SDS011;8341;42.048;24.650;2024-01-11T14:19:54;18.98;;;12.48;;
16460;SDS011;8341;42.048;24.650;2024-01-11T14:22:21;30.52;;;23.55;;
16460;SDS011;8341;42.048;24.650;2024-01-11T14:24:49;25.67;;;17.23;;
16460;SDS011;8341;42.048;24.650;2024-01-11T14:27:16;70.03;;;38.33;;
16460;SDS011;8341;42.048;24.650;2024-01-11T14:29:43;45.38;;;26.30;;
16460;SDS011;8341;42.048;24.650;2024-01-11T14:32:10;29.13;;;17.55;;
16460;SDS011;8341;42.048;24.650;2024-01-11T14:34:41;17.77;;;12.05;;
16460;SDS011;8341;42.048;24.650;2024-01-11T14:37:10;10.52;;;8.50;;
16460;SDS011;8341;42.048;24.650;2024-01-11T14:39:37;9.85;;;7.80;;
16460;SDS011;8341;42.048;24.650;2024-01-11T14:42:04;5.88;;;4.78;;